Time;durP1;ratioP1;P1;durP2;ratioP2;P2;SDS_P1;SDS_P2;PMS_P1;PMS_P2;Temp;Humidity;BMP_temperature;BMP_pressure;BME280_temperature;BME280_humidity;BME280_pressure;Samples;Min_cycle;Max_cycle;Signal;HPM_P1;HPM_P2
2022/04/27 00:01:41;;;;;;;;;;;;;;;10.74;61.87;101730.09;5009927;28;19918;-76
2022/04/27 00:04:07;;;;;;;;;;;;;;;10.80;62.78;101740.44;5001035;28;19932;-76
2022/04/27 00:06:32;;;;;;;;;;;;;;;10.71;61.80;101733.59;5005288;28;19989;-75
2022/04/27 00:08:57;;;;;;;;;;;;;;;10.73;63.10;101728.38;5003635;28;19979;-79
2022/04/27 00:11:23;;;;;;;;;;;;;;;10.77;62.02;101728.34;5007231;28;19940;-76
2022/04/27 00:13:48;;;;;;;;;;;;;;;10.69;61.98;101729.28;5008431;28;19917;-76
2022/04/27 00:16:13;;;;;;;;;;;;;;;10.68;61.57;101724.94;5008420;28;19929;-76
2022/04/27 00:18:39;;;;;;;;;;;;;;;10.75;61.32;101726.63;5007043;28;20016;-78
2022/04/27 00:21:04;;;;;;;;;;;;;;;10.70;60.76;101723.22;5004539;28;19929;-79
2022/04/27 00:23:32;;;;;;;;;;;;;;;10.56;61.46;101725.00;5000718;28;19913;-76
2022/04/27 00:25:57;;;;;;;;;;;;;;;10.70;61.06;101721.44;5005619;28;20367;-76
2022/04/27 00:28:22;;;;;;;;;;;;;;;10.79;60.72;101733.56;4999172;28;19932;-77
2022/04/27 00:30:48;;;;;;;;;;;;;;;10.69;63.78;101739.66;5005351;28;19922;-77
2022/04/27 00:33:13;;;;;;;;;;;;;;;10.65;63.87;101740.53;5009980;28;20173;-77
2022/04/27 00:35:38;;;;;;;;;;;;;;;10.54;64.27;101739.75;5004259;28;19956;-72
2022/04/27 00:38:04;;;;;;;;;;;;;;;10.51;64.93;101748.44;5002897;28;19933;-72
2022/04/27 00:40:29;;;;;;;;;;;;;;;10.39;65.51;101743.28;5005029;28;20012;-78
2022/04/27 00:42:54;;;;;;;;;;;;;;;10.34;65.60;101735.50;5007022;28;19925;-79
2022/04/27 00:45:21;;;;;;;;;;;;;;;10.39;65.45;101736.38;5008133;28;19922;-75
2022/04/27 00:47:46;;;;;;;;;;;;;;;10.35;64.88;101738.97;5003040;28;19929;-72
2022/04/27 00:50:12;;;;;;;;;;;;;;;10.43;65.05;101738.06;5006943;28;19976;-73
2022/04/27 00:52:38;;;;;;;;;;;;;;;10.20;63.87;101734.72;5009847;28;19928;-72
2022/04/27 00:55:03;;;;;;;;;;;;;;;10.46;63.26;101740.63;5012218;28;19929;-79
2022/04/27 00:57:30;;;;;;;;;;;;;;;10.55;63.41;101734.56;5012559;28;20383;-75
2022/04/27 00:59:55;;;;;;;;;;;;;;;10.43;63.65;101750.22;5012983;28;20040;-75
2022/04/27 01:02:21;;;;;;;;;;;;;;;10.51;63.57;101752.75;5005820;28;19925;-75
2022/04/27 01:04:46;;;;;;;;;;;;;;;10.34;63.68;101750.25;5010610;28;20021;-79
2022/04/27 01:07:11;;;;;;;;;;;;;;;10.43;64.02;101751.03;5010650;28;19925;-79
2022/04/27 01:09:37;;;;;;;;;;;;;;;10.33;63.26;101751.97;5015537;28;19928;-76
2022/04/27 01:12:03;;;;;;;;;;;;;;;10.37;63.49;101755.44;5010190;28;19937;-76
2022/04/27 01:14:28;;;;;;;;;;;;;;;10.42;64.08;101762.31;5008578;28;20032;-76
2022/04/27 01:16:57;;;;;;;;;;;;;;;10.45;62.26;101757.13;5011521;28;19932;-77
2022/04/27 01:19:23;;;;;;;;;;;;;;;10.38;63.36;101757.13;5003551;28;20276;-72
2022/04/27 01:21:49;;;;;;;;;;;;;;;10.55;63.18;101765.75;5003204;28;19921;-79
2022/04/27 01:24:17;;;;;;;;;;;;;;;10.43;63.38;101760.59;5009809;28;20008;-76
2022/04/27 01:26:42;;;;;;;;;;;;;;;10.46;62.16;101766.63;5011702;28;19985;-75
2022/04/27 01:29:08;;;;;;;;;;;;;;;10.47;62.19;101767.47;5008383;28;19929;-79
2022/04/27 01:31:33;;;;;;;;;;;;;;;10.39;63.05;101775.31;5016672;28;19925;-78
2022/04/27 01:33:58;;;;;;;;;;;;;;;10.18;63.84;101765.00;5010572;28;19933;-76
2022/04/27 01:36:23;;;;;;;;;;;;;;;10.31;63.53;101769.31;5004234;28;19936;-76
2022/04/27 01:38:49;;;;;;;;;;;;;;;10.31;62.38;101766.72;5005625;28;19932;-79
2022/04/27 01:41:15;;;;;;;;;;;;;;;10.28;63.13;101765.84;5009819;28;19921;-78
2022/04/27 01:43:40;;;;;;;;;;;;;;;10.38;63.69;101767.53;5011624;28;19964;-79
2022/04/27 01:46:05;;;;;;;;;;;;;;;10.34;64.13;101774.47;5011458;28;20314;-79
2022/04/27 01:48:31;;;;;;;;;;;;;;;10.21;62.73;101764.13;5007494;28;20387;-76
2022/04/27 01:50:56;;;;;;;;;;;;;;;10.29;63.69;101771.03;5007026;28;20401;-76
2022/04/27 01:56:06;;;;;;;;;;;;;;;10.50;63.01;101780.47;5009264;28;19924;-76
2022/04/27 01:58:32;;;;;;;;;;;;;;;10.46;62.92;101773.56;5011185;28;20299;-76
2022/04/27 02:00:57;;;;;;;;;;;;;;;10.41;62.77;101781.38;5008507;28;19926;-76
2022/04/27 02:03:23;;;;;;;;;;;;;;;10.50;63.10;101783.06;5008383;28;19942;-76
2022/04/27 02:05:49;;;;;;;;;;;;;;;10.54;63.46;101778.72;5013327;28;19926;-76
2022/04/27 02:08:14;;;;;;;;;;;;;;;10.47;63.73;101777.88;5006100;28;20408;-79
2022/04/27 02:10:40;;;;;;;;;;;;;;;10.45;62.72;101780.50;5012185;28;19922;-77
2022/04/27 02:13:06;;;;;;;;;;;;;;;10.41;63.14;101786.56;5006981;28;19929;-77
2022/04/27 02:15:32;;;;;;;;;;;;;;;10.60;61.23;101779.56;5009581;28;20294;-72
2022/04/27 02:17:57;;;;;;;;;;;;;;;10.34;63.20;101782.25;5003952;28;19926;-75
2022/04/27 02:20:23;;;;;;;;;;;;;;;10.38;63.14;101785.72;5003866;28;19925;-79
2022/04/27 02:22:49;;;;;;;;;;;;;;;10.40;62.65;101774.44;5004582;28;20317;-77
2022/04/27 02:25:14;;;;;;;;;;;;;;;10.36;63.29;101777.94;5002025;28;19936;-77
2022/04/27 02:27:40;;;;;;;;;;;;;;;10.45;62.57;101775.31;4999248;28;19929;-77
2022/04/27 02:30:06;;;;;;;;;;;;;;;10.17;64.21;101778.00;4986148;28;20054;-77
2022/04/27 02:32:32;;;;;;;;;;;;;;;10.25;64.49;101784.91;4991350;28;19965;-77
2022/04/27 02:34:57;;;;;;;;;;;;;;;10.06;64.99;101791.00;4983348;28;19948;-77
2022/04/27 02:37:22;;;;;;;;;;;;;;;10.12;64.88;101791.00;4987412;28;19922;-77
2022/04/27 02:39:47;;;;;;;;;;;;;;;10.04;64.65;101790.16;4987263;28;20031;-76
2022/04/27 02:42:13;;;;;;;;;;;;;;;10.13;64.57;101784.94;4982410;28;19922;-76
2022/04/27 02:44:39;;;;;;;;;;;;;;;9.92;64.94;101792.78;4986254;28;19926;-76
2022/04/27 02:47:04;;;;;;;;;;;;;;;10.05;64.65;101798.81;4991340;28;19924;-76
2022/04/27 02:52:13;;;;;;;;;;;;;;;9.90;64.60;101791.91;4989808;28;19987;-77
2022/04/27 02:54:39;;;;;;;;;;;;;;;9.96;64.14;101801.44;4988333;28;20494;-76
2022/04/27 02:57:04;;;;;;;;;;;;;;;9.82;64.60;101796.22;4988083;28;19929;-76
2022/04/27 02:59:29;;;;;;;;;;;;;;;9.82;64.57;101802.28;4988369;28;19933;-76
2022/04/27 03:01:55;;;;;;;;;;;;;;;9.65;64.79;101800.56;4984703;28;20314;-76
2022/04/27 03:04:20;;;;;;;;;;;;;;;9.69;65.12;101805.75;4982486;28;20470;-76
2022/04/27 03:06:45;;;;;;;;;;;;;;;9.87;64.27;101804.84;4983589;28;20925;-75
2022/04/27 03:09:10;;;;;;;;;;;;;;;9.80;63.75;101808.34;4992160;28;19932;-76
2022/04/27 03:11:36;;;;;;;;;;;;;;;9.73;64.42;101804.88;4978730;28;19930;-76
2022/04/27 03:14:01;;;;;;;;;;;;;;;9.73;64.23;101807.47;4987247;28;19928;-76
2022/04/27 03:16:26;;;;;;;;;;;;;;;9.63;64.53;101805.75;4984112;28;19926;-72
2022/04/27 03:18:52;;;;;;;;;;;;;;;9.71;64.08;101806.63;4982246;28;20358;-75
2022/04/27 03:21:17;;;;;;;;;;;;;;;9.78;63.73;101803.13;4980968;28;19952;-75
2022/04/27 03:23:42;;;;;;;;;;;;;;;9.73;63.70;101809.19;4983589;28;19926;-76
2022/04/27 03:26:08;;;;;;;;;;;;;;;9.74;63.17;101811.81;4981280;28;19926;-73
2022/04/27 03:28:33;;;;;;;;;;;;;;;9.60;63.04;101810.94;4984788;28;19926;-73
2022/04/27 03:30:58;;;;;;;;;;;;;;;9.65;63.48;101810.94;4989617;28;20020;-73
2022/04/27 03:33:24;;;;;;;;;;;;;;;9.73;63.65;101812.66;4984770;28;19941;-73
2022/04/27 03:35:50;;;;;;;;;;;;;;;9.70;63.02;101804.00;4980876;28;20058;-79
2022/04/27 03:38:15;;;;;;;;;;;;;;;9.59;63.35;101814.41;4981637;28;19972;-79
2022/04/27 03:40:44;;;;;;;;;;;;;;;9.42;64.10;101820.47;4983477;28;19922;-77
2022/04/27 03:43:09;;;;;;;;;;;;;;;9.59;63.95;101823.91;4981499;28;19933;-77
2022/04/27 03:45:35;;;;;;;;;;;;;;;9.67;63.55;101824.78;4985297;28;19925;-76
2022/04/27 03:48:00;;;;;;;;;;;;;;;9.49;64.00;101828.22;4974803;28;20561;-76
2022/04/27 03:50:26;;;;;;;;;;;;;;;9.54;63.90;101828.25;4985601;28;19979;-77
2022/04/27 03:52:51;;;;;;;;;;;;;;;9.42;64.42;101829.13;4984260;28;20024;-77
2022/04/27 03:55:17;;;;;;;;;;;;;;;9.54;63.94;101833.44;4982584;28;20088;-77
2022/04/27 03:57:42;;;;;;;;;;;;;;;9.76;63.53;101838.63;4986466;28;19996;-77
2022/04/27 04:00:08;;;;;;;;;;;;;;;9.81;62.76;101836.03;4981930;28;19922;-77
2022/04/27 04:02:33;;;;;;;;;;;;;;;9.86;63.09;101839.47;4980483;28;19925;-77
2022/04/27 04:04:59;;;;;;;;;;;;;;;9.78;63.01;101839.47;4982921;28;19918;-77
2022/04/27 04:07:24;;;;;;;;;;;;;;;9.54;63.27;101842.09;4984082;28;20297;-75
2022/04/27 04:09:49;;;;;;;;;;;;;;;9.82;63.05;101840.34;4977285;28;19922;-75
2022/04/27 04:12:15;;;;;;;;;;;;;;;9.80;63.43;101847.28;4973540;28;19950;-76
2022/04/27 04:14:40;;;;;;;;;;;;;;;9.74;62.50;101849.88;4989430;28;20313;-76
2022/04/27 04:17:05;;;;;;;;;;;;;;;9.75;63.43;101854.19;4982354;28;19933;-76
2022/04/27 04:19:32;;;;;;;;;;;;;;;9.81;63.20;101860.22;4983080;28;19939;-76
2022/04/27 04:21:58;;;;;;;;;;;;;;;9.79;63.28;101858.50;4979962;28;19961;-73
2022/04/27 04:24:23;;;;;;;;;;;;;;;9.50;64.45;101865.41;4986570;28;19957;-73
2022/04/27 04:29:32;;;;;;;;;;;;;;;9.77;63.98;101868.91;4982592;28;19992;-79
2022/04/27 04:31:58;;;;;;;;;;;;;;;9.75;63.10;101862.81;4986391;28;19929;-80
2022/04/27 04:34:24;;;;;;;;;;;;;;;9.54;63.25;101869.75;4967234;28;20292;-77
2022/04/27 04:36:49;;;;;;;;;;;;;;;9.72;63.54;101875.78;4995453;28;19988;-73
2022/04/27 04:39:15;;;;;;;;;;;;;;;9.73;62.81;101879.25;5005704;28;20294;-79
2022/04/27 04:41:40;;;;;;;;;;;;;;;9.92;62.43;101880.16;5005088;28;20307;-76
2022/04/27 04:44:05;;;;;;;;;;;;;;;9.85;63.53;101890.50;5005425;28;20013;-77
2022/04/27 04:46:31;;;;;;;;;;;;;;;9.74;64.07;101902.63;5003546;28;19922;-76
2022/04/27 04:48:56;;;;;;;;;;;;;;;9.56;64.04;101892.22;5003425;28;20362;-76
2022/04/27 04:51:21;;;;;;;;;;;;;;;9.69;64.09;101903.50;5004260;28;19925;-76
2022/04/27 04:53:46;;;;;;;;;;;;;;;9.55;64.80;101900.88;5004319;28;20052;-76
2022/04/27 04:56:12;;;;;;;;;;;;;;;9.61;64.34;101906.06;5004283;28;19930;-78
2022/04/27 04:58:37;;;;;;;;;;;;;;;9.49;64.20;101906.03;5005080;28;19925;-79
2022/04/27 05:01:03;;;;;;;;;;;;;;;9.58;64.71;101912.97;5002179;28;19983;-72
2022/04/27 05:03:29;;;;;;;;;;;;;;;9.67;64.55;101912.97;5001506;28;19928;-73
2022/04/27 05:05:55;;;;;;;;;;;;;;;9.72;64.02;101914.72;5005223;28;19978;-79
2022/04/27 05:08:20;;;;;;;;;;;;;;;9.63;63.51;101908.69;5002929;28;19921;-79
2022/04/27 05:10:45;;;;;;;;;;;;;;;9.85;61.92;101907.81;5002294;28;19992;-79
2022/04/27 05:13:11;;;;;;;;;;;;;;;9.70;63.83;101915.59;5006581;28;20444;-77
2022/04/27 05:15:36;;;;;;;;;;;;;;;9.87;63.96;101919.91;4998644;28;19930;-78
2022/04/27 05:18:04;;;;;;;;;;;;;;;9.83;62.90;101918.19;5007720;28;19972;-73
2022/04/27 05:20:30;;;;;;;;;;;;;;;9.76;63.15;101920.78;5002369;28;19925;-73
2022/04/27 05:22:55;;;;;;;;;;;;;;;9.84;64.22;101927.69;5011389;28;19937;-80
2022/04/27 05:25:20;;;;;;;;;;;;;;;9.90;63.51;101932.94;5004261;28;19925;-81
2022/04/27 05:27:46;;;;;;;;;;;;;;;9.88;63.36;101932.03;5004755;28;20477;-78
2022/04/27 05:32:55;;;;;;;;;;;;;;;9.67;65.00;101942.41;5008976;28;19936;-73
2022/04/27 05:35:21;;;;;;;;;;;;;;;9.87;64.99;101942.41;5006916;28;19929;-78
2022/04/27 05:37:46;;;;;;;;;;;;;;;9.82;64.42;101933.75;5008211;28;19931;-73
2022/04/27 05:40:13;;;;;;;;;;;;;;;9.85;65.14;101944.13;5008901;28;19983;-73
2022/04/27 05:42:39;;;;;;;;;;;;;;;9.75;66.02;101950.22;5014181;28;19975;-76
2022/04/27 05:45:05;;;;;;;;;;;;;;;9.80;65.41;101959.72;5010951;28;19921;-78
2022/04/27 05:47:30;;;;;;;;;;;;;;;10.08;63.85;101964.97;5009447;28;20008;-80
2022/04/27 05:49:55;;;;;;;;;;;;;;;10.01;63.76;101958.03;5012788;28;19964;-80
2022/04/27 05:52:21;;;;;;;;;;;;;;;10.01;64.70;101963.22;5009507;28;20413;-76
2022/04/27 05:54:49;;;;;;;;;;;;;;;9.90;64.63;101960.59;5004195;28;20009;-75
2022/04/27 05:57:15;;;;;;;;;;;;;;;10.08;63.85;101970.16;5001343;28;19925;-76
2022/04/27 05:59:42;;;;;;;;;;;;;;;9.88;63.47;101965.78;5008799;28;20016;-72
2022/04/27 06:02:07;;;;;;;;;;;;;;;9.90;64.37;101968.38;5003954;28;20000;-73
2022/04/27 06:04:33;;;;;;;;;;;;;;;9.85;65.57;101978.75;5009213;28;20438;-73
2022/04/27 06:06:58;;;;;;;;;;;;;;;9.72;65.45;101976.16;5010061;28;19933;-73
2022/04/27 06:09:23;;;;;;;;;;;;;;;9.75;65.72;101976.16;5005978;28;19964;-80
2022/04/27 06:11:49;;;;;;;;;;;;;;;9.92;63.42;101973.59;5008791;28;19931;-78
2022/04/27 06:14:14;;;;;;;;;;;;;;;9.97;62.64;101983.13;5010964;28;19929;-78
2022/04/27 06:16:39;;;;;;;;;;;;;;;9.99;64.08;101983.13;5003647;28;20009;-72
2022/04/27 06:19:05;;;;;;;;;;;;;;;9.91;64.09;101988.31;5008889;28;19921;-72
2022/04/27 06:21:33;;;;;;;;;;;;;;;9.99;63.68;101986.56;5008723;28;19991;-73
2022/04/27 06:24:00;;;;;;;;;;;;;;;9.86;63.68;101995.19;5008824;28;19921;-73
2022/04/27 06:26:25;;;;;;;;;;;;;;;9.89;64.19;101995.19;5008264;28;20456;-75
2022/04/27 06:28:51;;;;;;;;;;;;;;;9.83;64.44;101996.06;5010421;28;20438;-80
2022/04/27 06:31:17;;;;;;;;;;;;;;;9.77;64.37;102002.97;5010678;28;19929;-80
2022/04/27 06:33:42;;;;;;;;;;;;;;;9.83;63.62;102005.56;5004471;28;19929;-80
2022/04/27 06:36:08;;;;;;;;;;;;;;;9.84;64.16;102010.75;5006732;28;20020;-80
2022/04/27 06:38:33;;;;;;;;;;;;;;;10.05;63.17;102012.53;5008804;28;20401;-80
2022/04/27 06:40:58;;;;;;;;;;;;;;;10.06;64.39;102014.28;5006254;28;19929;-80
2022/04/27 06:43:23;;;;;;;;;;;;;;;10.14;65.38;102019.47;5013326;28;19921;-80
2022/04/27 06:45:49;;;;;;;;;;;;;;;9.97;64.85;102016.88;5006703;28;20552;-75
2022/04/27 06:48:14;;;;;;;;;;;;;;;10.10;64.80;102016.03;5002946;28;19948;-76
2022/04/27 06:50:40;;;;;;;;;;;;;;;10.15;64.30;102019.47;5007793;28;19922;-76
2022/04/27 06:53:06;;;;;;;;;;;;;;;10.07;65.42;102022.94;5013714;28;19921;-76
2022/04/27 06:55:31;;;;;;;;;;;;;;;9.91;64.58;102029.81;5009526;28;19964;-76
2022/04/27 06:57:57;;;;;;;;;;;;;;;10.06;64.00;102022.06;5003085;28;20371;-76
2022/04/27 07:00:22;;;;;;;;;;;;;;;10.07;65.68;102028.13;5007095;28;20372;-75
2022/04/27 07:02:48;;;;;;;;;;;;;;;10.08;66.66;102032.47;5008365;28;19971;-75
2022/04/27 07:05:17;;;;;;;;;;;;;;;10.08;66.80;102030.72;5010220;28;20019;-76
2022/04/27 07:07:45;;;;;;;;;;;;;;;10.12;67.10;102037.66;5011718;28;19921;-77
2022/04/27 07:10:11;;;;;;;;;;;;;;;10.27;66.21;102029.00;5010753;28;20048;-76
2022/04/27 07:12:37;;;;;;;;;;;;;;;10.19;65.70;102035.94;5001031;28;19921;-76
2022/04/27 07:15:03;;;;;;;;;;;;;;;10.21;65.89;102042.84;5006998;28;19952;-76
2022/04/27 07:17:28;;;;;;;;;;;;;;;10.26;64.47;102041.13;5013000;28;19956;-73
2022/04/27 07:19:53;;;;;;;;;;;;;;;10.33;64.04;102044.59;5012786;28;20382;-73
2022/04/27 07:22:19;;;;;;;;;;;;;;;10.42;63.26;102047.19;5016972;28;20023;-73
2022/04/27 07:24:44;;;;;;;;;;;;;;;10.30;62.84;102044.59;5009863;28;19928;-72
2022/04/27 07:27:10;;;;;;;;;;;;;;;10.53;63.31;102042.84;5008611;28;20295;-77
2022/04/27 07:29:38;;;;;;;;;;;;;;;10.62;63.46;102044.56;5019771;28;19956;-77
2022/04/27 07:32:03;;;;;;;;;;;;;;;10.42;65.56;102052.38;5021504;28;20008;-76
2022/04/27 07:34:28;;;;;;;;;;;;;;;10.44;65.39;102054.13;5012199;28;20004;-73
2022/04/27 07:36:54;;;;;;;;;;;;;;;10.43;64.19;102048.94;5004571;28;19976;-76
2022/04/27 07:39:19;;;;;;;;;;;;;;;10.53;64.02;102047.16;5007293;28;19941;-79
2022/04/27 07:41:45;;;;;;;;;;;;;;;10.41;65.49;102048.91;5013118;28;19925;-72
2022/04/27 07:44:17;;;;;;;;;;;;;;;10.57;64.31;102041.13;5004370;28;19929;-73
2022/04/27 07:46:47;;;;;;;;;;;;;;;10.39;65.03;102053.25;5004503;28;19925;-73
2022/04/27 07:49:13;;;;;;;;;;;;;;;10.55;65.11;102048.06;5008869;28;20436;-73
2022/04/27 07:51:38;;;;;;;;;;;;;;;10.58;65.21;102048.06;5006496;28;19932;-72
2022/04/27 07:54:03;;;;;;;;;;;;;;;10.50;65.83;102053.25;5004602;28;19929;-72
2022/04/27 07:56:29;;;;;;;;;;;;;;;10.54;64.35;102046.31;5007695;28;19918;-76
2022/04/27 07:58:54;;;;;;;;;;;;;;;10.51;64.54;102049.78;5004143;28;19926;-77
2022/04/27 08:01:20;;;;;;;;;;;;;;;10.57;63.84;102043.72;5009390;28;20374;-77
2022/04/27 08:03:45;;;;;;;;;;;;;;;10.49;64.14;102048.94;5008026;28;19925;-73
2022/04/27 08:06:10;;;;;;;;;;;;;;;10.67;64.21;102053.25;5014902;28;19975;-73
2022/04/27 08:08:37;;;;;;;;;;;;;;;10.62;63.20;102047.16;5007047;28;19932;-73
2022/04/27 08:11:02;;;;;;;;;;;;;;;10.70;64.97;102055.84;5004943;28;19960;-75
2022/04/27 08:13:27;;;;;;;;;;;;;;;10.72;65.00;102054.09;5006505;28;20409;-73
2022/04/27 08:15:53;;;;;;;;;;;;;;;10.69;65.61;102056.69;4996630;28;19934;-73
2022/04/27 08:18:19;;;;;;;;;;;;;;;10.66;64.69;102054.09;5001277;28;19922;-73
2022/04/27 08:23:30;;;;;;;;;;;;;;;10.75;64.49;102061.91;5011676;28;19970;-76
2022/04/27 08:26:03;;;;;;;;;;;;;;;10.79;64.45;102064.47;5021213;28;19922;-72
2022/04/27 08:28:28;;;;;;;;;;;;;;;10.76;63.84;102064.47;5009681;28;19925;-72
2022/04/27 08:30:54;;;;;;;;;;;;;;;10.82;65.05;102069.66;5013439;28;20630;-73
2022/04/27 08:33:19;;;;;;;;;;;;;;;10.78;65.25;102072.28;5005999;28;19968;-77
2022/04/27 08:35:45;;;;;;;;;;;;;;;10.90;65.22;102069.69;5007407;28;19936;-77
2022/04/27 08:38:11;;;;;;;;;;;;;;;10.90;64.47;102074.88;5013397;28;20025;-73
2022/04/27 08:40:37;;;;;;;;;;;;;;;10.94;61.79;102067.06;5008120;28;19921;-80
2022/04/27 08:43:02;;;;;;;;;;;;;;;10.99;62.60;102067.94;5008428;28;19918;-77
2022/04/27 08:45:28;;;;;;;;;;;;;;;10.86;63.91;102078.34;5013345;28;19932;-72
2022/04/27 08:47:54;;;;;;;;;;;;;;;10.93;63.53;102075.75;5007355;28;19964;-73
2022/04/27 08:50:20;;;;;;;;;;;;;;;10.96;62.83;102074.88;5007290;28;19921;-73
2022/04/27 08:52:46;;;;;;;;;;;;;;;10.94;63.87;102073.97;5017692;28;19952;-73
2022/04/27 08:55:12;;;;;;;;;;;;;;;11.07;64.88;102077.44;5008580;28;20477;-73
2022/04/27 08:57:38;;;;;;;;;;;;;;;11.12;63.67;102073.94;5007382;28;19964;-80
2022/04/27 09:00:07;;;;;;;;;;;;;;;11.00;64.74;102079.16;5011140;28;19968;-80
2022/04/27 09:02:33;;;;;;;;;;;;;;;11.03;64.21;102081.75;5003355;28;19929;-80
2022/04/27 09:05:07;;;;;;;;;;;;;;;11.12;63.98;102081.75;5002005;28;19913;-80
2022/04/27 09:07:36;;;;;;;;;;;;;;;10.99;63.08;102082.66;5009089;28;20455;-80
2022/04/27 09:10:01;;;;;;;;;;;;;;;11.15;62.59;102075.66;5012658;28;20024;-76
2022/04/27 09:12:27;;;;;;;;;;;;;;;11.18;63.85;102086.94;5012918;28;20558;-72
2022/04/27 09:14:57;;;;;;;;;;;;;;;11.18;63.14;102091.25;5014732;28;19933;-73
2022/04/27 09:20:59;;;;;;;;;;;;;;;11.14;63.34;102084.38;5006947;28;20060;-80
2022/04/27 09:22:59;;;;;;;;;;;;;;;11.14;63.73;102089.56;5006896;28;19921;-80
2022/04/27 09:25:32;;;;;;;;;;;;;;;11.20;64.47;102089.56;5007821;28;19928;-75
2022/04/27 09:27:59;;;;;;;;;;;;;;;11.28;64.05;102091.28;5012856;28;20133;-76
2022/04/27 09:30:27;;;;;;;;;;;;;;;11.24;62.74;102086.06;5001068;28;19921;-73
2022/04/27 09:32:53;;;;;;;;;;;;;;;11.25;61.48;102082.59;5009084;28;19936;-73
2022/04/27 09:35:35;;;;;;;;;;;;;;;11.24;63.39;102086.91;5019422;28;19921;-77
2022/04/27 09:38:13;;;;;;;;;;;;;;;11.31;62.68;102082.59;5021476;28;19916;-80
2022/04/27 09:40:45;;;;;;;;;;;;;;;11.43;63.91;102082.56;5011552;28;20040;-76
2022/04/27 09:43:15;;;;;;;;;;;;;;;11.41;63.29;102082.56;5009823;28;19922;-76
2022/04/27 09:45:41;;;;;;;;;;;;;;;11.44;63.40;102081.72;5012731;28;19952;-77
2022/04/27 09:48:08;;;;;;;;;;;;;;;11.44;63.74;102085.16;5018545;28;19932;-77
2022/04/27 09:50:46;;;;;;;;;;;;;;;11.52;63.29;102077.34;5012310;28;20314;-77
2022/04/27 09:53:11;;;;;;;;;;;;;;;11.59;63.06;102075.56;5009491;28;19926;-77
2022/04/27 09:55:38;;;;;;;;;;;;;;;11.56;61.58;102071.25;5008762;28;20004;-76
2022/04/27 09:58:04;;;;;;;;;;;;;;;11.67;63.64;102076.41;5008779;28;20389;-76
2022/04/27 10:00:30;;;;;;;;;;;;;;;11.68;63.37;102075.53;5013128;28;19921;-72
2022/04/27 10:02:56;;;;;;;;;;;;;;;11.70;63.04;102071.19;5000329;28;19932;-73
2022/04/27 10:05:22;;;;;;;;;;;;;;;11.69;61.14;102077.25;5011360;28;20410;-73
2022/04/27 10:07:48;;;;;;;;;;;;;;;11.68;60.94;102075.53;5010508;28;19921;-75
2022/04/27 10:10:19;;;;;;;;;;;;;;;11.64;60.21;102073.81;5010588;28;19925;-76
2022/04/27 10:12:44;;;;;;;;;;;;;;;11.68;61.47;102071.16;5002580;28;19929;-76
2022/04/27 10:15:10;;;;;;;;;;;;;;;11.65;62.06;102070.34;5003553;28;20463;-77
2022/04/27 10:17:35;;;;;;;;;;;;;;;11.74;60.37;102067.69;5015252;28;20510;-72
2022/04/27 10:20:01;;;;;;;;;;;;;;;11.76;60.86;102059.00;5015726;28;19932;-76
2022/04/27 10:22:28;;;;;;;;;;;;;;;11.70;59.50;102053.81;5005127;28;19961;-77
2022/04/27 10:24:55;;;;;;;;;;;;;;;11.85;58.74;102061.56;5009540;28;20004;-73
2022/04/27 10:27:21;;;;;;;;;;;;;;;11.86;59.65;102058.06;4998342;28;20387;-73
2022/04/27 10:29:51;;;;;;;;;;;;;;;11.83;59.99;102065.06;4999443;28;19922;-77
2022/04/27 10:32:43;;;;;;;;;;;;;;;11.78;58.98;102058.97;4999130;28;19925;-77
2022/04/27 10:35:29;;;;;;;;;;;;;;;11.83;59.50;102059.84;5012808;28;19929;-77
2022/04/27 10:37:58;;;;;;;;;;;;;;;11.89;60.72;102054.59;5011736;28;19926;-77
2022/04/27 10:40:29;;;;;;;;;;;;;;;11.93;61.99;102066.72;5010762;28;19962;-77
2022/04/27 10:43:07;;;;;;;;;;;;;;;11.95;61.81;102063.22;5008309;28;20019;-77
2022/04/27 10:45:36;;;;;;;;;;;;;;;11.98;57.38;102051.91;5004749;28;19922;-77
2022/04/27 10:48:03;;;;;;;;;;;;;;;12.07;58.37;102064.88;5005779;28;19921;-77
2022/04/27 10:50:33;;;;;;;;;;;;;;;12.05;57.32;102059.69;5013097;28;20337;-77
2022/04/27 10:53:19;;;;;;;;;;;;;;;12.06;58.18;102060.56;5014750;28;19926;-80
2022/04/27 10:55:48;;;;;;;;;;;;;;;12.06;58.31;102055.34;5012231;28;19969;-80
2022/04/27 10:58:13;;;;;;;;;;;;;;;12.15;58.55;102055.28;5008700;28;19928;-80
2022/04/27 11:01:08;;;;;;;;;;;;;;;12.11;58.07;102059.66;5013528;28;19918;-80
2022/04/27 11:03:35;;;;;;;;;;;;;;;12.23;58.49;102060.44;5005497;28;20020;-80
2022/04/27 11:06:04;;;;;;;;;;;;;;;12.15;58.48;102051.81;5012756;28;19922;-80
2022/04/27 11:08:36;;;;;;;;;;;;;;;12.20;58.95;102055.25;5012175;28;19948;-77
2022/04/27 11:11:06;;;;;;;;;;;;;;;12.30;58.83;102043.88;5002688;28;19921;-77
2022/04/27 11:13:34;;;;;;;;;;;;;;;12.35;58.89;102052.53;5005627;28;19921;-77
2022/04/27 11:16:07;;;;;;;;;;;;;;;12.30;56.38;102054.31;5008417;28;19926;-77
2022/04/27 11:18:47;;;;;;;;;;;;;;;12.27;55.93;102042.19;5004388;28;19925;-72
2022/04/27 11:21:13;;;;;;;;;;;;;;;12.23;56.82;102052.63;5007761;28;19964;-73
2022/04/27 11:23:39;;;;;;;;;;;;;;;12.28;56.15;102053.44;5006896;28;19983;-77
2022/04/27 11:26:06;;;;;;;;;;;;;;;12.23;57.55;102050.88;5008770;28;19926;-77
2022/04/27 11:28:32;;;;;;;;;;;;;;;12.26;58.48;102042.16;5004205;28;19925;-77
2022/04/27 11:30:57;;;;;;;;;;;;;;;12.38;56.77;102047.28;5007011;28;19941;-77
2022/04/27 11:33:24;;;;;;;;;;;;;;;12.39;57.12;102041.22;4999831;28;19984;-77
2022/04/27 11:35:50;;;;;;;;;;;;;;;12.40;56.51;102043.78;5003688;28;19929;-77
2022/04/27 11:38:19;;;;;;;;;;;;;;;12.45;56.32;102046.38;5003771;28;20024;-77
2022/04/27 11:40:44;;;;;;;;;;;;;;;12.49;55.42;102041.09;5007107;28;19945;-77
2022/04/27 11:43:10;;;;;;;;;;;;;;;12.49;54.21;102035.91;5003571;28;19921;-77
2022/04/27 11:45:35;;;;;;;;;;;;;;;12.46;56.13;102038.53;4999604;28;19952;-77
2022/04/27 11:48:05;;;;;;;;;;;;;;;12.50;53.93;102034.16;5002603;28;19929;-77
2022/04/27 11:50:34;;;;;;;;;;;;;;;12.53;53.70;102029.81;5007973;28;20015;-77
2022/04/27 11:53:02;;;;;;;;;;;;;;;12.64;54.08;102042.75;5005890;28;20079;-77
2022/04/27 11:55:28;;;;;;;;;;;;;;;12.63;55.47;102038.44;5003997;28;19925;-77
2022/04/27 11:57:53;;;;;;;;;;;;;;;12.64;54.85;102037.53;4998208;28;20477;-77
2022/04/27 12:00:20;;;;;;;;;;;;;;;12.64;55.08;102040.13;5003315;28;19933;-77
2022/04/27 12:02:45;;;;;;;;;;;;;;;12.68;55.99;102036.63;5007045;28;19921;-77
2022/04/27 12:05:11;;;;;;;;;;;;;;;12.74;56.20;102030.50;5002653;28;19932;-77
2022/04/27 12:07:37;;;;;;;;;;;;;;;12.80;56.62;102025.22;5001675;28;19921;-80
2022/04/27 12:10:07;;;;;;;;;;;;;;;12.89;53.72;102028.59;5001244;28;19929;-76
2022/04/27 12:12:33;;;;;;;;;;;;;;;12.87;53.51;102022.50;5003625;28;19929;-77
2022/04/27 12:15:04;;;;;;;;;;;;;;;12.85;52.36;102018.19;5003263;28;19925;-77
2022/04/27 12:17:48;;;;;;;;;;;;;;;12.91;53.54;102018.13;5004042;28;20607;-77
2022/04/27 12:20:33;;;;;;;;;;;;;;;13.00;53.12;102029.34;4997955;28;20024;-77
2022/04/27 12:23:18;;;;;;;;;;;;;;;12.90;51.01;102017.28;5005061;28;19917;-78
2022/04/27 12:25:43;;;;;;;;;;;;;;;12.95;52.23;102018.09;5003250;28;19964;-77
2022/04/27 12:28:10;;;;;;;;;;;;;;;12.89;50.88;102014.69;5003876;28;19957;-77
2022/04/27 12:30:40;;;;;;;;;;;;;;;12.78;51.66;102014.78;5005019;28;19921;-77
2022/04/27 12:33:05;;;;;;;;;;;;;;;12.89;51.16;102012.94;5005998;28;19925;-76
2022/04/27 12:38:17;;;;;;;;;;;;;;;12.98;49.96;102018.06;5006864;28;19935;-76
2022/04/27 12:40:42;;;;;;;;;;;;;;;13.01;51.19;102014.56;5012532;28;19963;-73
2022/04/27 12:43:08;;;;;;;;;;;;;;;13.02;52.21;102009.31;5012114;28;20387;-80
2022/04/27 12:45:34;;;;;;;;;;;;;;;13.06;50.76;102002.31;5015548;28;19925;-81
2022/04/27 12:48:00;;;;;;;;;;;;;;;13.03;53.25;102007.56;5015381;28;19926;-80
2022/04/27 12:50:25;;;;;;;;;;;;;;;13.05;52.94;102005.78;5009868;28;19913;-81
2022/04/27 12:52:51;;;;;;;;;;;;;;;13.06;53.57;102012.75;5009043;28;19928;-81
2022/04/27 12:55:17;;;;;;;;;;;;;;;13.14;53.29;102005.69;5003813;28;19940;-78
2022/04/27 12:57:48;;;;;;;;;;;;;;;13.05;54.04;102005.78;5005949;28;19994;-77